Time;durP1;ratioP1;P1;durP2;ratioP2;P2;SDS_P1;SDS_P2;PMS_P1;PMS_P2;Temp;Humidity;BMP_temperature;BMP_pressure;BME280_temperature;BME280_humidity;BME280_pressure;Samples;Min_cycle;Max_cycle;Signal;HPM_P1;HPM_P2
2023/05/21 00:02:46;;;;;;;17.00;15.37;;;17.10;99.90;;;;;;10612152;27;20215;-86
2023/05/21 00:07:52;;;;;;;17.60;16.00;;;17.20;99.90;;;;;;10591313;27;20250;-86
2023/05/21 00:12:54;;;;;;;17.70;16.13;;;17.10;99.90;;;;;;10625094;27;20241;-86
2023/05/21 00:17:56;;;;;;;15.93;14.53;;;17.00;99.90;;;;;;10594291;27;20212;-86
2023/05/21 00:23:01;;;;;;;18.23;16.73;;;17.00;99.90;;;;;;10630295;27;20754;-85
2023/05/21 00:28:03;;;;;;;19.00;17.37;;;17.00;99.90;;;;;;10607307;27;20747;-85
2023/05/21 00:33:06;;;;;;;16.90;15.30;;;17.00;99.90;;;;;;10590526;27;20654;-86
2023/05/21 00:38:09;;;;;;;17.47;15.93;;;17.00;99.90;;;;;;10624230;27;20209;-86
2023/05/21 00:43:13;;;;;;;17.60;16.03;;;16.90;99.90;;;;;;10604016;27;20199;-86
2023/05/21 00:48:15;;;;;;;16.97;15.57;;;16.90;99.90;;;;;;10638317;27;20266;-86
2023/05/21 00:53:19;;;;;;;18.30;16.70;;;17.00;99.90;;;;;;10595863;27;20191;-86
2023/05/21 00:58:21;;;;;;;19.27;17.57;;;16.90;99.90;;;;;;10603658;27;20222;-86
2023/05/21 01:03:24;;;;;;;18.27;16.77;;;16.90;99.90;;;;;;10601064;27;20227;-86
2023/05/21 01:08:29;;;;;;;18.73;17.03;;;16.90;99.90;;;;;;10609840;27;20306;-86
2023/05/21 01:13:34;;;;;;;18.33;16.67;;;16.90;99.90;;;;;;10628258;27;20686;-86
2023/05/21 01:18:37;;;;;;;18.67;17.03;;;16.90;99.90;;;;;;10611182;27;20744;-86
2023/05/21 01:23:41;;;;;;;19.00;17.40;;;16.90;99.90;;;;;;10628197;27;20195;-85
2023/05/21 01:28:43;;;;;;;19.67;17.97;;;16.80;99.90;;;;;;10591164;27;20287;-86
2023/05/21 01:33:49;;;;;;;20.03;18.17;;;16.80;99.90;;;;;;10605033;27;20195;-86
2023/05/21 01:39:01;;;;;;;21.10;19.20;;;16.80;99.90;;;;;;10596563;27;20219;-86
2023/05/21 01:44:06;;;;;;;19.60;18.00;;;16.80;99.90;;;;;;10617779;27;20248;-85
2023/05/21 01:49:09;;;;;;;21.53;18.60;;;16.70;99.90;;;;;;10609212;27;20219;-85
2023/05/21 01:54:13;;;;;;;20.50;18.70;;;16.70;99.90;;;;;;10616337;27;20625;-85
2023/05/21 01:59:16;;;;;;;19.77;18.07;;;16.70;99.90;;;;;;10590036;27;20219;-85
2023/05/21 02:04:18;;;;;;;21.10;19.20;;;16.60;99.90;;;;;;10606974;27;20629;-84
2023/05/21 02:09:21;;;;;;;20.37;18.63;;;16.60;99.90;;;;;;10605068;27;20218;-84
2023/05/21 02:14:24;;;;;;;18.80;17.17;;;16.60;99.90;;;;;;10582324;27;20258;-85
2023/05/21 02:19:26;;;;;;;19.87;18.17;;;16.60;99.90;;;;;;10605900;27;20215;-85
2023/05/21 02:24:30;;;;;;;21.60;19.70;;;16.60;99.90;;;;;;10615811;27;20263;-85
2023/05/21 02:29:32;;;;;;;20.73;18.93;;;16.50;99.90;;;;;;10600263;27;20219;-86
2023/05/21 02:34:36;;;;;;;22.43;20.03;;;16.50;99.90;;;;;;10640163;27;20238;-84
2023/05/21 02:39:39;;;;;;;22.03;20.03;;;16.50;99.90;;;;;;10669908;27;20260;-85
2023/05/21 02:44:41;;;;;;;21.40;19.43;;;16.50;99.90;;;;;;10613788;28;20200;-85
2023/05/21 02:49:44;;;;;;;20.97;19.07;;;16.40;99.90;;;;;;10580078;28;20215;-85
2023/05/21 02:54:48;;;;;;;21.37;19.47;;;16.50;99.90;;;;;;10604082;28;20282;-84
2023/05/21 02:59:50;;;;;;;22.33;20.27;;;16.40;99.90;;;;;;10601301;28;20243;-84
2023/05/21 03:04:53;;;;;;;23.67;21.37;;;16.40;99.90;;;;;;10608618;28;20195;-85
2023/05/21 03:09:56;;;;;;;22.67;20.60;;;16.30;99.90;;;;;;10590370;28;20215;-84
2023/05/21 03:14:58;;;;;;;23.30;21.10;;;16.30;99.90;;;;;;10577351;27;20195;-85
2023/05/21 03:20:00;;;;;;;23.73;21.53;;;16.30;99.90;;;;;;10601251;27;20228;-85
2023/05/21 03:25:04;;;;;;;22.20;20.20;;;16.30;99.90;;;;;;10613890;27;20213;-86
2023/05/21 03:30:08;;;;;;;21.60;19.67;;;16.30;99.90;;;;;;10651627;27;20219;-85
2023/05/21 03:35:19;;;;;;;22.53;20.53;;;16.30;99.90;;;;;;10630697;27;20195;-85
2023/05/21 03:40:23;;;;;;;23.80;21.60;;;16.30;99.90;;;;;;10621423;27;20223;-85
2023/05/21 03:45:25;;;;;;;24.00;21.80;;;16.30;99.90;;;;;;10608998;27;20655;-85
2023/05/21 03:50:46;;;;;;;23.67;21.23;;;16.20;99.90;;;;;;10596510;22;20603;-82
2023/05/21 03:55:53;;;;;;;23.00;21.00;;;16.20;99.90;;;;;;10546060;28;20192;-82
2023/05/21 04:00:57;;;;;;;23.50;21.37;;;16.20;99.90;;;;;;10557032;28;20678;-82
2023/05/21 04:06:00;;;;;;;25.50;23.03;;;16.20;99.90;;;;;;10538115;28;20207;-82
2023/05/21 04:11:03;;;;;;;23.20;21.10;;;16.20;99.90;;;;;;10551475;28;20220;-81
2023/05/21 04:16:07;;;;;;;24.83;22.43;;;16.20;99.90;;;;;;10552040;28;20197;-82
2023/05/21 04:21:10;;;;;;;23.63;21.40;;;16.20;99.90;;;;;;10531642;28;20335;-82
2023/05/21 04:26:15;;;;;;;23.77;21.70;;;16.20;99.90;;;;;;10511274;28;20227;-82
2023/05/21 04:31:17;;;;;;;23.93;21.73;;;16.30;99.90;;;;;;10551095;28;20188;-82
2023/05/21 04:36:20;;;;;;;24.80;22.37;;;16.30;99.90;;;;;;10542716;28;20220;-82
2023/05/21 04:41:23;;;;;;;23.10;21.10;;;16.20;99.90;;;;;;10523156;28;20247;-82
2023/05/21 04:46:25;;;;;;;23.60;21.53;;;16.30;99.90;;;;;;10565262;28;20234;-82
2023/05/21 04:51:29;;;;;;;23.73;21.43;;;16.30;99.90;;;;;;10538908;28;20391;-82
2023/05/21 04:56:33;;;;;;;23.87;21.60;;;16.30;99.90;;;;;;10553289;28;20311;-82
2023/05/21 05:01:37;;;;;;;24.10;21.87;;;16.40;99.90;;;;;;10542391;28;20578;-82
2023/05/21 05:06:39;;;;;;;24.17;21.77;;;16.40;99.90;;;;;;10520680;28;20211;-82
2023/05/21 05:11:43;;;;;;;24.23;22.03;;;16.50;99.90;;;;;;10536995;28;20570;-81
2023/05/21 05:16:46;;;;;;;24.33;21.93;;;16.50;99.90;;;;;;10558264;28;20738;-82
2023/05/21 05:21:50;;;;;;;24.80;22.60;;;16.50;99.90;;;;;;10518846;28;20239;-82
2023/05/21 05:26:55;;;;;;;25.10;22.70;;;16.60;99.90;;;;;;10535930;28;20307;-82
2023/05/21 05:31:57;;;;;;;24.40;22.03;;;16.60;99.90;;;;;;10555687;28;20216;-81
2023/05/21 05:36:59;;;;;;;24.47;22.20;;;16.70;99.90;;;;;;10533326;28;20311;-81
2023/05/21 05:42:03;;;;;;;25.80;23.27;;;16.70;99.90;;;;;;10554726;28;20224;-81
2023/05/21 05:47:09;;;;;;;23.83;21.53;;;16.80;99.90;;;;;;10549138;28;20223;-81
2023/05/21 05:52:13;;;;;;;24.70;22.50;;;16.90;99.90;;;;;;10539081;28;20196;-82
2023/05/21 05:57:16;;;;;;;24.13;22.00;;;17.00;99.90;;;;;;10542703;28;20278;-82
2023/05/21 06:02:21;;;;;;;24.53;22.23;;;17.10;99.90;;;;;;10556376;28;20240;-83
2023/05/21 06:07:23;;;;;;;24.50;22.20;;;17.20;99.90;;;;;;10529648;28;20702;-82
2023/05/21 06:12:26;;;;;;;23.47;21.27;;;17.30;99.90;;;;;;10525071;28;20200;-82
2023/05/21 06:17:28;;;;;;;22.90;20.77;;;17.40;99.90;;;;;;10547510;28;20454;-82
2023/05/21 06:22:30;;;;;;;25.33;22.93;;;17.60;99.90;;;;;;10561193;28;20792;-82
2023/05/21 06:27:35;;;;;;;25.90;23.23;;;17.70;99.90;;;;;;10517370;28;20264;-83
2023/05/21 06:32:38;;;;;;;23.50;21.30;;;17.70;99.90;;;;;;10562445;28;20201;-82
2023/05/21 06:37:41;;;;;;;22.00;19.70;;;17.80;99.90;;;;;;10567325;28;20253;-82
2023/05/21 06:42:45;;;;;;;24.73;22.50;;;18.00;99.90;;;;;;10553131;28;20290;-83
2023/05/21 06:48:06;;;;;;;23.47;21.43;;;18.10;99.90;;;;;;10531599;28;20224;-82
2023/05/21 06:53:08;;;;;;;21.20;19.30;;;18.20;99.90;;;;;;10517653;28;20203;-82
2023/05/21 06:58:12;;;;;;;22.70;20.50;;;18.40;99.90;;;;;;10553097;28;20212;-82
2023/05/21 07:03:14;;;;;;;21.47;19.53;;;18.50;99.90;;;;;;10565751;28;20212;-83
2023/05/21 07:08:18;;;;;;;21.77;19.77;;;18.70;99.90;;;;;;10532717;28;20215;-82
2023/05/21 07:13:22;;;;;;;20.97;18.97;;;18.80;99.90;;;;;;10555161;28;20566;-82
2023/05/21 07:18:24;;;;;;;21.27;19.20;;;18.90;99.90;;;;;;10569619;28;20212;-82
2023/05/21 07:23:27;;;;;;;23.13;21.00;;;19.20;99.90;;;;;;10566937;28;20679;-83
2023/05/21 07:28:30;;;;;;;19.53;17.67;;;19.40;99.90;;;;;;10519515;28;20282;-83
2023/05/21 07:33:33;;;;;;;14.33;13.17;;;19.60;99.90;;;;;;10523205;28;20188;-82
2023/05/21 07:38:35;;;;;;;19.13;17.43;;;19.70;99.90;;;;;;10556098;28;20216;-83
2023/05/21 07:43:39;;;;;;;18.60;16.70;;;19.90;99.90;;;;;;10578499;28;20212;-82
2023/05/21 07:48:42;;;;;;;17.77;16.17;;;20.10;99.90;;;;;;10552785;28;20227;-83
2023/05/21 07:53:45;;;;;;;16.80;15.20;;;20.30;99.90;;;;;;10548400;28;20197;-83
2023/05/21 07:58:52;;;;;;;16.93;15.10;;;20.50;99.90;;;;;;10543336;28;20671;-82
2023/05/21 08:03:55;;;;;;;17.70;15.87;;;20.70;99.90;;;;;;10564226;28;20216;-84
2023/05/21 08:08:57;;;;;;;16.63;15.13;;;21.00;99.90;;;;;;10519747;28;20212;-82
2023/05/21 08:14:01;;;;;;;16.47;14.97;;;21.20;99.90;;;;;;10558480;28;20528;-82
2023/05/21 08:19:03;;;;;;;15.70;14.40;;;21.40;99.90;;;;;;10544219;28;20261;-82
2023/05/21 08:24:07;;;;;;;13.97;12.77;;;21.50;99.90;;;;;;10584847;28;20215;-82
2023/05/21 08:29:11;;;;;;;16.20;14.70;;;21.60;99.90;;;;;;10541694;28;20216;-83
2023/05/21 08:34:13;;;;;;;15.30;13.80;;;21.70;99.90;;;;;;10542548;28;20188;-83
2023/05/21 08:39:25;;;;;;;14.87;13.57;;;21.90;99.90;;;;;;10527212;28;20213;-83
2023/05/21 08:44:33;;;;;;;13.87;12.60;;;22.20;99.90;;;;;;10512240;28;20226;-82
2023/05/21 08:49:35;;;;;;;14.70;13.50;;;22.40;99.90;;;;;;10558614;28;20717;-82
2023/05/21 08:54:38;;;;;;;15.23;13.83;;;22.80;99.90;;;;;;10526690;28;20267;-82
2023/05/21 08:59:43;;;;;;;14.30;12.80;;;23.10;99.90;;;;;;10547887;28;20269;-82
2023/05/21 09:04:57;;;;;;;15.07;13.77;;;23.30;99.80;;;;;;10540190;28;20189;-82
2023/05/21 09:10:05;;;;;;;13.43;12.33;;;23.40;97.90;;;;;;10552648;28;20222;-81
2023/05/21 09:15:09;;;;;;;10.67;9.77;;;23.60;99.30;;;;;;10554786;28;20210;-81
2023/05/21 09:20:15;;;;;;;13.67;12.57;;;23.70;98.70;;;;;;10567106;28;20208;-83
2023/05/21 09:25:30;;;;;;;15.30;13.90;;;23.80;98.50;;;;;;10563827;28;20175;-83
2023/05/21 09:30:44;;;;;;;13.80;12.63;;;23.80;97.80;;;;;;10546021;28;20219;-82
2023/05/21 09:35:50;;;;;;;11.83;10.83;;;23.90;96.80;;;;;;10542224;28;20297;-83
2023/05/21 09:40:55;;;;;;;11.67;10.77;;;23.90;97.60;;;;;;10582460;28;20207;-83
2023/05/21 09:51:13;;;;;;;11.93;10.93;;;24.10;97.30;;;;;;10428444;28;20237;-82
2023/05/21 09:56:16;;;;;;;11.50;10.60;;;24.40;96.90;;;;;;10417384;28;20616;-80
2023/05/21 10:01:19;;;;;;;10.03;9.23;;;24.70;95.80;;;;;;10439664;28;20336;-78
2023/05/21 10:06:26;;;;;;;10.53;9.73;;;25.10;95.60;;;;;;10414420;28;20229;-79
2023/05/21 10:11:31;;;;;;;12.53;11.33;;;25.60;93.90;;;;;;10429626;28;20282;-80
2023/05/21 10:16:34;;;;;;;10.13;9.23;;;26.00;94.70;;;;;;10422153;28;20226;-82
2023/05/21 10:21:39;;;;;;;10.40;9.60;;;26.00;93.30;;;;;;10447761;28;20222;-82
2023/05/21 10:26:42;;;;;;;11.40;10.53;;;25.50;93.70;;;;;;10425614;28;20221;-80
2023/05/21 10:31:48;;;;;;;11.40;10.50;;;25.00;92.80;;;;;;10436818;28;20190;-82
2023/05/21 10:36:54;;;;;;;11.60;10.70;;;24.50;95.80;;;;;;10438518;28;20248;-80
2023/05/21 10:42:05;;;;;;;11.40;10.40;;;24.10;96.40;;;;;;10431604;28;20263;-79
2023/05/21 10:47:34;;;;;;;12.10;11.00;;;23.90;96.30;;;;;;10429204;28;20226;-81
2023/05/21 10:52:52;;;;;;;12.73;11.60;;;23.70;96.10;;;;;;10400496;28;20196;-79
2023/05/21 10:58:13;;;;;;;12.40;11.40;;;23.50;96.60;;;;;;10444825;28;20209;-81
2023/05/21 11:03:19;;;;;;;13.57;12.20;;;23.50;97.70;;;;;;10442528;28;20256;-82
2023/05/21 11:08:26;;;;;;;13.27;11.90;;;23.40;96.30;;;;;;10431934;28;20241;-82
2023/05/21 11:13:31;;;;;;;12.53;11.50;;;23.30;96.90;;;;;;10440778;28;20606;-81
2023/05/21 11:18:58;;;;;;;12.70;11.60;;;23.20;96.80;;;;;;10451519;28;20256;-81
2023/05/21 11:24:05;;;;;;;12.80;11.60;;;23.10;97.80;;;;;;10437187;28;20278;-82
2023/05/21 11:29:08;;;;;;;13.30;12.10;;;23.00;98.10;;;;;;10426442;28;20245;-82
2023/05/21 11:34:14;;;;;;;13.00;11.80;;;22.90;97.40;;;;;;10427168;28;20202;-79
2023/05/21 11:39:21;;;;;;;12.67;11.40;;;22.90;97.60;;;;;;10422704;28;20214;-81
2023/05/21 11:44:38;;;;;;;12.40;11.40;;;22.90;98.30;;;;;;10441852;28;20226;-81
2023/05/21 11:49:41;;;;;;;12.60;11.40;;;22.80;97.60;;;;;;10457375;28;20312;-80
2023/05/21 11:54:47;;;;;;;11.60;10.60;;;22.80;96.90;;;;;;10441839;28;20195;-83
2023/05/21 11:59:50;;;;;;;13.47;11.20;;;22.80;97.00;;;;;;10439698;28;20213;-81
2023/05/21 12:04:52;;;;;;;12.20;11.20;;;22.80;97.10;;;;;;10423372;28;20214;-80
2023/05/21 12:09:56;;;;;;;11.43;10.50;;;22.80;97.60;;;;;;10405694;28;20229;-81
2023/05/21 12:15:00;;;;;;;11.10;10.10;;;22.80;98.30;;;;;;10422833;28;20195;-80
2023/05/21 12:20:07;;;;;;;11.10;10.20;;;22.70;97.60;;;;;;10401244;28;20222;-78
2023/05/21 12:25:11;;;;;;;10.93;10.03;;;22.70;98.70;;;;;;10407314;28;20218;-80
2023/05/21 12:30:14;;;;;;;11.30;10.30;;;22.70;98.10;;;;;;10410307;28;20215;-82
2023/05/21 12:35:23;;;;;;;11.03;10.13;;;22.70;98.90;;;;;;10409420;28;20217;-82
2023/05/21 12:40:36;;;;;;;11.70;10.80;;;22.70;98.70;;;;;;10428693;28;20242;-82
2023/05/21 12:45:39;;;;;;;10.00;9.30;;;22.70;98.60;;;;;;10408668;28;20249;-80
2023/05/21 12:50:42;;;;;;;10.80;9.90;;;22.60;97.30;;;;;;10418506;28;20233;-80
2023/05/21 12:55:46;;;;;;;9.93;9.23;;;22.60;98.70;;;;;;10438160;28;20198;-79
2023/05/21 13:00:48;;;;;;;11.33;10.43;;;22.50;98.40;;;;;;10437288;28;20744;-79
2023/05/21 13:05:58;;;;;;;11.20;10.40;;;22.50;98.50;;;;;;10427752;28;20266;-79
2023/05/21 13:11:02;;;;;;;11.30;10.30;;;22.40;98.80;;;;;;10432405;28;20250;-80
2023/05/21 13:16:04;;;;;;;8.50;7.77;;;22.40;98.40;;;;;;10439813;28;20202;-79
2023/05/21 13:21:07;;;;;;;9.57;8.67;;;22.40;97.10;;;;;;10446653;28;20214;-81
2023/05/21 13:26:10;;;;;;;9.77;8.80;;;22.40;95.80;;;;;;10447255;28;20730;-81
2023/05/21 13:31:14;;;;;;;8.33;7.63;;;22.40;97.10;;;;;;10446707;28;20194;-81
2023/05/21 13:36:16;;;;;;;9.37;8.67;;;22.30;96.90;;;;;;10404345;28;20266;-78
2023/05/21 13:41:20;;;;;;;7.43;6.93;;;22.30;95.90;;;;;;10376014;28;20447;-78
2023/05/21 13:46:22;;;;;;;9.43;8.70;;;22.30;96.80;;;;;;10392076;28;20246;-78
2023/05/21 13:51:25;;;;;;;9.10;8.47;;;22.30;98.60;;;;;;10394701;28;20198;-79
2023/05/21 13:56:31;;;;;;;8.93;8.23;;;22.20;96.70;;;;;;10412105;28;20222;-80
2023/05/21 14:01:33;;;;;;;7.80;7.20;;;22.20;94.60;;;;;;10415603;28;20644;-82
2023/05/21 14:06:36;;;;;;;7.73;7.20;;;22.30;94.90;;;;;;10416098;28;20221;-79
2023/05/21 14:11:40;;;;;;;8.03;7.43;;;22.40;95.70;;;;;;10423761;28;20198;-79
2023/05/21 14:16:42;;;;;;;8.70;8.00;;;22.60;95.00;;;;;;10386187;28;20231;-80
2023/05/21 14:21:44;;;;;;;16.70;15.00;;;22.70;95.50;;;;;;10394429;28;20214;-79
2023/05/21 14:26:48;;;;;;;8.60;7.97;;;22.70;94.20;;;;;;10412982;28;20273;-80
2023/05/21 14:31:50;;;;;;;8.73;7.93;;;22.80;96.40;;;;;;10395792;28;20202;-80
2023/05/21 14:36:52;;;;;;;9.00;8.20;;;22.70;96.80;;;;;;10413623;28;20245;-80
2023/05/21 14:41:55;;;;;;;7.70;7.10;;;22.80;96.10;;;;;;10395192;28;20230;-81
2023/05/21 14:46:59;;;;;;;8.87;8.17;;;22.80;94.50;;;;;;10414113;28;20253;-80
2023/05/21 14:52:01;;;;;;;8.20;7.50;;;22.90;94.10;;;;;;10407275;28;20225;-79
2023/05/21 14:57:05;;;;;;;6.30;5.80;;;23.00;92.80;;;;;;10393090;28;20229;-80
2023/05/21 15:02:07;;;;;;;7.20;6.60;;;23.00;92.90;;;;;;10411439;28;20242;-80
2023/05/21 15:07:09;;;;;;;7.53;6.83;;;23.10;93.70;;;;;;10410849;28;20233;-80
2023/05/21 15:12:13;;;;;;;5.60;5.20;;;23.10;93.40;;;;;;10393829;28;20248;-80
2023/05/21 15:17:15;;;;;;;6.00;5.60;;;23.10;87.10;;;;;;10413287;28;20593;-80
2023/05/21 15:22:17;;;;;;;7.20;6.60;;;23.10;91.90;;;;;;10400936;28;20694;-81
2023/05/21 15:27:22;;;;;;;6.30;5.80;;;23.00;94.60;;;;;;10417141;28;20214;-81
2023/05/21 15:32:24;;;;;;;6.40;5.90;;;22.90;88.40;;;;;;10419857;28;20284;-80
2023/05/21 15:37:27;;;;;;;9.80;6.50;;;22.90;90.00;;;;;;10388036;28;20227;-81
2023/05/21 15:42:30;;;;;;;6.73;5.97;;;22.90;91.60;;;;;;10402295;28;20210;-82
2023/05/21 15:47:32;;;;;;;6.10;5.63;;;22.80;91.90;;;;;;10425536;22;20585;-83
2023/05/21 15:52:34;;;;;;;5.77;5.30;;;22.60;92.20;;;;;;10530563;28;20556;-83
2023/05/21 15:57:38;;;;;;;5.33;4.83;;;22.50;92.70;;;;;;10544701;27;20212;-83
2023/05/21 16:02:40;;;;;;;5.20;4.80;;;22.40;92.70;;;;;;10589152;27;20302;-83
2023/05/21 16:07:43;;;;;;;5.00;4.60;;;22.30;91.60;;;;;;10579162;27;20228;-83
2023/05/21 16:12:46;;;;;;;4.90;4.60;;;22.30;90.00;;;;;;10541308;28;20199;-85
2023/05/21 16:17:48;;;;;;;6.20;5.70;;;22.30;91.40;;;;;;10552571;27;20246;-83
2023/05/21 16:22:50;;;;;;;7.33;6.63;;;22.20;94.50;;;;;;10591933;27;20203;-84
2023/05/21 16:27:54;;;;;;;6.80;6.30;;;22.10;95.80;;;;;;10626411;27;20682;-84
2023/05/21 16:32:56;;;;;;;6.97;6.47;;;21.90;93.40;;;;;;10549522;28;20192;-84
2023/05/21 16:37:58;;;;;;;6.77;6.30;;;21.80;95.40;;;;;;10586435;27;20211;-84
2023/05/21 16:43:02;;;;;;;6.70;6.20;;;21.80;94.20;;;;;;10544912;28;20247;-84
2023/05/21 16:48:05;;;;;;;12.03;6.20;;;22.00;94.80;;;;;;10564777;27;20759;-84
2023/05/21 16:53:08;;;;;;;6.90;6.40;;;22.00;94.80;;;;;;10621470;27;20210;-84
2023/05/21 16:58:12;;;;;;;6.77;6.10;;;22.00;95.00;;;;;;10602638;27;20216;-84
2023/05/21 17:03:15;;;;;;;6.80;6.30;;;22.10;95.00;;;;;;10585099;27;20241;-84
2023/05/21 17:08:17;;;;;;;7.17;6.47;;;22.10;95.40;;;;;;10594825;27;20237;-84
2023/05/21 17:13:21;;;;;;;6.50;6.00;;;22.10;95.40;;;;;;10568560;27;20674;-81
2023/05/21 17:18:23;;;;;;;7.80;7.07;;;22.10;95.60;;;;;;10589705;27;20228;-81
2023/05/21 17:23:25;;;;;;;7.43;6.80;;;22.10;95.50;;;;;;10591394;27;20204;-82
2023/05/21 17:28:28;;;;;;;7.73;7.03;;;22.10;95.70;;;;;;10604005;27;20212;-82
2023/05/21 17:33:30;;;;;;;7.93;7.27;;;22.10;95.50;;;;;;10596672;27;20192;-83
2023/05/21 17:38:33;;;;;;;9.43;8.70;;;22.10;95.40;;;;;;10579364;27;20221;-83
2023/05/21 17:43:36;;;;;;;9.43;8.60;;;22.00;95.70;;;;;;10600913;27;20234;-82
2023/05/21 17:48:38;;;;;;;8.70;8.00;;;22.00;96.10;;;;;;10563816;27;20229;-83
2023/05/21 17:53:41;;;;;;;12.60;8.43;;;21.90;96.50;;;;;;10595779;27;20199;-83
2023/05/21 17:58:44;;;;;;;8.93;8.13;;;21.80;96.70;;;;;;10593850;27;20700;-84
2023/05/21 18:03:47;;;;;;;9.13;8.33;;;21.80;96.50;;;;;;10577115;27;20219;-83
2023/05/21 18:08:49;;;;;;;9.80;8.80;;;21.70;96.80;;;;;;10580602;27;20215;-83
2023/05/21 18:13:53;;;;;;;9.87;9.07;;;21.60;97.30;;;;;;10586955;28;20198;-83
2023/05/21 18:18:55;;;;;;;10.30;9.50;;;21.50;97.90;;;;;;10589142;27;20230;-84
2023/05/21 18:23:57;;;;;;;11.80;10.20;;;21.40;97.80;;;;;;10553650;28;20215;-86
2023/05/21 18:29:01;;;;;;;10.60;9.70;;;21.30;98.10;;;;;;10591490;27;20207;-84
2023/05/21 18:34:03;;;;;;;11.60;10.60;;;21.10;98.40;;;;;;10594467;27;20188;-84
2023/05/21 18:39:06;;;;;;;12.60;11.27;;;21.00;98.50;;;;;;10595887;28;20215;-87
2023/05/21 18:44:09;;;;;;;10.70;9.80;;;21.00;98.70;;;;;;10583491;27;20272;-85
2023/05/21 18:49:11;;;;;;;11.80;10.70;;;20.90;98.90;;;;;;10601996;28;20230;-83
2023/05/21 18:54:13;;;;;;;11.17;10.27;;;20.80;99.00;;;;;;10592475;27;20278;-84
2023/05/21 18:59:17;;;;;;;11.10;10.20;;;20.70;99.00;;;;;;10558106;27;20259;-85
2023/05/21 19:04:19;;;;;;;10.63;9.63;;;20.60;99.50;;;;;;10557036;27;20227;-85
2023/05/21 19:09:21;;;;;;;12.07;10.93;;;20.50;99.50;;;;;;10605684;27;20215;-85
2023/05/21 19:14:24;;;;;;;12.10;11.00;;;20.40;99.80;;;;;;10576870;28;20211;-85
2023/05/21 19:19:26;;;;;;;12.27;11.10;;;20.30;99.90;;;;;;10584051;27;20557;-85
2023/05/21 19:24:29;;;;;;;13.20;12.00;;;20.20;99.90;;;;;;10547356;27;20227;-85
2023/05/21 19:29:32;;;;;;;12.63;11.50;;;20.20;99.90;;;;;;10570128;27;20246;-85
2023/05/21 19:34:34;;;;;;;11.57;10.40;;;20.00;99.90;;;;;;10566858;27;20200;-84
2023/05/21 19:39:40;;;;;;;12.63;11.47;;;20.00;99.90;;;;;;10531496;28;20246;-84
2023/05/21 19:44:43;;;;;;;12.03;10.33;;;19.90;99.90;;;;;;10594070;27;20306;-85
2023/05/21 19:49:45;;;;;;;12.30;11.30;;;19.80;99.90;;;;;;10573038;27;20229;-83
2023/05/21 19:54:49;;;;;;;13.17;11.77;;;19.70;99.90;;;;;;10570264;27;20202;-83
2023/05/21 19:59:55;;;;;;;11.60;10.60;;;19.60;99.90;;;;;;10618252;27;20585;-87
2023/05/21 20:04:57;;;;;;;13.00;11.70;;;19.60;99.90;;;;;;10582419;27;20230;-84
2023/05/21 20:09:59;;;;;;;22.97;21.07;;;19.40;99.90;;;;;;10578275;27;20207;-84
2023/05/21 20:15:05;;;;;;;14.10;12.80;;;19.40;99.90;;;;;;10571825;27;20187;-83
2023/05/21 20:20:11;;;;;;;13.20;12.00;;;19.30;99.90;;;;;;10578264;27;20207;-83
2023/05/21 20:25:13;;;;;;;11.83;10.83;;;19.30;99.90;;;;;;10593364;27;20697;-83
2023/05/21 20:30:17;;;;;;;12.13;11.23;;;19.20;99.90;;;;;;10606426;27;20230;-84
2023/05/21 20:35:19;;;;;;;12.60;11.50;;;19.20;99.90;;;;;;10570539;28;20653;-83
2023/05/21 20:40:24;;;;;;;12.00;11.00;;;19.10;99.90;;;;;;10572509;27;20211;-84
2023/05/21 20:45:28;;;;;;;17.17;15.53;;;19.00;99.90;;;;;;10588642;27;20368;-85
2023/05/21 20:50:33;;;;;;;12.30;11.30;;;19.00;99.90;;;;;;10601274;27;20254;-83
2023/05/21 20:55:35;;;;;;;12.60;11.60;;;19.00;99.90;;;;;;10571554;27;20188;-83
2023/05/21 21:00:40;;;;;;;13.40;12.30;;;18.90;99.90;;;;;;10570557;27;20245;-83
2023/05/21 21:05:42;;;;;;;13.80;12.67;;;18.90;99.90;;;;;;10585435;27;20211;-82
2023/05/21 21:10:45;;;;;;;12.87;11.80;;;18.90;99.90;;;;;;10574561;27;20623;-84
2023/05/21 21:15:49;;;;;;;12.50;11.50;;;18.80;99.90;;;;;;10585882;27;20202;-82
2023/05/21 21:20:51;;;;;;;13.83;12.53;;;18.80;99.90;;;;;;10604523;27;20211;-83
2023/05/21 21:25:53;;;;;;;14.73;12.77;;;18.70;99.90;;;;;;10571451;27;20322;-83
2023/05/21 21:30:56;;;;;;;13.97;12.77;;;18.70;99.90;;;;;;10592622;27;20219;-83
2023/05/21 21:36:00;;;;;;;12.20;11.00;;;18.60;99.90;;;;;;10597801;27;20207;-84
2023/05/21 21:41:02;;;;;;;14.00;12.80;;;18.60;99.90;;;;;;10600181;27;20250;-84
2023/05/21 21:46:05;;;;;;;14.20;13.00;;;18.60;99.90;;;;;;10599009;27;20594;-84
2023/05/21 21:51:08;;;;;;;13.30;12.10;;;18.50;99.90;;;;;;10626431;27;20223;-84
2023/05/21 21:56:10;;;;;;;13.60;12.50;;;18.50;99.90;;;;;;10581824;27;20195;-84
2023/05/21 22:01:13;;;;;;;13.53;12.43;;;18.40;99.90;;;;;;10587188;27;20229;-84
2023/05/21 22:06:15;;;;;;;14.27;13.07;;;18.40;99.90;;;;;;10621319;27;20219;-83
2023/05/21 22:11:17;;;;;;;13.90;12.77;;;18.30;99.90;;;;;;10599043;27;20217;-83
2023/05/21 22:16:23;;;;;;;14.27;13.07;;;18.20;99.90;;;;;;10559808;27;20188;-85
2023/05/21 22:21:28;;;;;;;15.57;14.03;;;18.20;99.90;;;;;;10596720;27;20216;-84
2023/05/21 22:26:30;;;;;;;14.90;13.60;;;18.20;99.90;;;;;;10573198;27;20216;-83
2023/05/21 22:31:33;;;;;;;14.83;13.63;;;18.20;99.90;;;;;;10578319;28;20239;-83
2023/05/21 22:36:37;;;;;;;13.90;12.80;;;18.20;99.90;;;;;;10576846;28;20565;-82
2023/05/21 22:41:39;;;;;;;14.23;13.13;;;18.10;99.90;;;;;;10612046;27;20219;-85
2023/05/21 22:46:43;;;;;;;15.47;14.00;;;18.10;99.90;;;;;;10583668;27;20212;-82
2023/05/21 22:51:45;;;;;;;15.03;13.70;;;18.10;99.90;;;;;;10605623;27;20305;-83
2023/05/21 22:56:48;;;;;;;15.40;14.10;;;18.00;99.90;;;;;;10592815;28;20196;-85
2023/05/21 23:01:52;;;;;;;14.53;13.33;;;18.00;99.90;;;;;;10572790;28;20216;-84
2023/05/21 23:06:54;;;;;;;14.77;13.53;;;17.90;99.90;;;;;;10566702;28;20224;-84
2023/05/21 23:11:58;;;;;;;14.83;13.50;;;17.90;99.90;;;;;;10591583;28;20192;-83
2023/05/21 23:17:03;;;;;;;15.93;14.60;;;17.90;99.90;;;;;;10589331;28;20649;-83
2023/05/21 23:22:05;;;;;;;15.23;13.83;;;17.80;99.90;;;;;;10576979;28;20546;-84
2023/05/21 23:27:07;;;;;;;14.73;13.43;;;17.80;99.90;;;;;;10602236;27;20239;-84
2023/05/21 23:32:11;;;;;;;15.07;13.80;;;17.80;99.90;;;;;;10575281;28;20278;-84
2023/05/21 23:37:14;;;;;;;15.03;13.80;;;17.80;99.90;;;;;;10560779;28;20200;-83
2023/05/21 23:42:17;;;;;;;15.67;14.33;;;17.70;99.90;;;;;;10595759;27;20262;-83
2023/05/21 23:47:20;;;;;;;15.30;13.90;;;17.70;99.90;;;;;;10636469;27;20242;-83
2023/05/21 23:52:22;;;;;;;14.57;13.37;;;17.70;99.90;;;;;;10590728;28;20610;-83
2023/05/21 23:57:25;;;;;;;16.30;14.97;;;17.70;99.90;;;;;;10582327;28;20215;-83
